createdAt,value
2023-04-18T00:01:25.059Z,98975.19
2023-04-18T00:03:53.467Z,98967.44
2023-04-18T00:06:22.272Z,98972.59
2023-04-18T00:08:51.107Z,98971.47
2023-04-18T00:11:19.013Z,98970.97
2023-04-18T00:13:47.422Z,98966.78
2023-04-18T00:16:15.521Z,98959.03
2023-04-18T00:18:43.645Z,98962.25
2023-04-18T00:21:11.665Z,98973.72
2023-04-18T00:23:39.826Z,98971.94
2023-04-18T00:26:07.883Z,98971.94
2023-04-18T00:28:35.727Z,98976.13
2023-04-18T00:31:03.785Z,98978.56
2023-04-18T00:33:34.581Z,98980.81
2023-04-18T00:36:02.525Z,98980.16
2023-04-18T00:38:30.401Z,98972.25
2023-04-18T00:40:58.349Z,98971.59
2023-04-18T00:43:26.842Z,98975.13
2023-04-18T00:45:57.085Z,98968.84
2023-04-18T00:48:25.286Z,98970.25
2023-04-18T00:50:55.989Z,98965.88
2023-04-18T00:53:24.186Z,98970.78
2023-04-18T00:55:53.145Z,98967.88
2023-04-18T00:58:21.029Z,98966.41
2023-04-18T01:00:48.921Z,98966.69
2023-04-18T01:03:18.431Z,98952.06
2023-04-18T01:05:47.368Z,98956.72
2023-04-18T01:08:16.270Z,98967.56
2023-04-18T01:10:44.373Z,98956.38
2023-04-18T01:13:20.658Z,98960.75
2023-04-18T01:15:50.700Z,98958.66
2023-04-18T01:18:19.181Z,98960.91
2023-04-18T01:20:49.417Z,98953.00
2023-04-18T01:23:18.416Z,98956.56
2023-04-18T01:25:47.414Z,98955.59
2023-04-18T01:28:15.933Z,98957.03
2023-04-18T01:30:43.801Z,98953.94
2023-04-18T01:33:11.734Z,98952.84
2023-04-18T01:35:39.679Z,98961.72
2023-04-18T01:38:07.604Z,98954.63
2023-04-18T01:40:35.705Z,98961.56
2023-04-18T01:43:03.693Z,98954.94
2023-04-18T01:45:31.597Z,98948.16
2023-04-18T01:47:59.533Z,98949.75
2023-04-18T01:50:27.391Z,98950.72
2023-04-18T01:52:55.438Z,98949.91
2023-04-18T01:55:23.321Z,98947.50
2023-04-18T01:57:51.590Z,98952.19
2023-04-18T02:00:21.035Z,98944.16
2023-04-18T02:02:50.407Z,98944.94
2023-04-18T02:05:18.636Z,98947.97
2023-04-18T02:07:47.708Z,98953.81
2023-04-18T02:10:15.885Z,98959.94
2023-04-18T02:12:44.010Z,98953.81
2023-04-18T02:15:11.879Z,98951.88
2023-04-18T02:17:41.612Z,98955.13
2023-04-18T02:20:10.871Z,98954.78
2023-04-18T02:22:39.512Z,98937.38
2023-04-18T02:25:07.933Z,98946.25
2023-04-18T02:27:35.838Z,98956.41
2023-04-18T02:30:03.844Z,98945.59
2023-04-18T02:32:35.272Z,98956.13
2023-04-18T02:35:03.417Z,98949.31
2023-04-18T02:37:31.350Z,98949.47
2023-04-18T02:39:59.208Z,98957.88
2023-04-18T02:42:31.466Z,98961.59
2023-04-18T02:45:00.407Z,98955.91
2023-04-18T02:47:29.473Z,98958.03
2023-04-18T02:49:58.910Z,98957.56
2023-04-18T02:52:28.700Z,98961.91
2023-04-18T02:54:56.668Z,98966.75
2023-04-18T02:57:27.881Z,98956.91
2023-04-18T03:00:01.403Z,98956.09
2023-04-18T03:02:33.169Z,98954.16
2023-04-18T03:05:10.248Z,98955.91
2023-04-18T03:07:38.213Z,98964.16
2023-04-18T03:10:06.651Z,98954.66
2023-04-18T03:12:37.405Z,98945.28
2023-04-18T03:15:06.289Z,98956.91
2023-04-18T03:17:35.897Z,98954.78
2023-04-18T03:20:06.478Z,98955.13
2023-04-18T03:22:34.392Z,98952.56
2023-04-18T03:25:02.565Z,98957.41
2023-04-18T03:27:50.613Z,98950.94
2023-04-18T03:30:21.073Z,98951.09
2023-04-18T03:32:54.049Z,98952.88
2023-04-18T03:35:22.234Z,98946.59
2023-04-18T03:37:50.848Z,98938.00
2023-04-18T03:40:25.201Z,98928.97
2023-04-18T03:42:56.207Z,98943.34
2023-04-18T03:45:24.067Z,98943.03
2023-04-18T03:47:52.143Z,98941.88
2023-04-18T03:50:21.580Z,98937.53
2023-04-18T03:52:52.384Z,98952.84
2023-04-18T03:55:20.310Z,98943.34
2023-04-18T03:57:49.363Z,98949.97
2023-04-18T04:00:26.138Z,98954.97
2023-04-18T04:03:01.662Z,98950.94
2023-04-18T04:05:30.102Z,98963.84
2023-04-18T04:07:58.077Z,98959.81
2023-04-18T04:10:26.232Z,98959.00
2023-04-18T04:12:54.881Z,98962.09
2023-04-18T04:15:22.949Z,98957.22
2023-04-18T04:17:57.870Z,98944.47
2023-04-18T04:20:26.635Z,98960.97
2023-04-18T04:23:03.241Z,98951.25
2023-04-18T04:25:34.181Z,98954.34
2023-04-18T04:28:06.784Z,98954.34
2023-04-18T04:30:41.946Z,98963.19
2023-04-18T04:33:09.828Z,98965.94
2023-04-18T04:35:39.199Z,98958.53
2023-04-18T04:38:08.590Z,98962.06
2023-04-18T04:40:44.675Z,98965.28
2023-04-18T04:43:15.618Z,98961.25
2023-04-18T04:45:45.257Z,98966.75
2023-04-18T04:48:13.417Z,98972.09
2023-04-18T04:50:42.576Z,98974.03
2023-04-18T04:53:12.721Z,98975.97
2023-04-18T04:55:41.426Z,98967.25
2023-04-18T04:58:09.426Z,98966.59
2023-04-18T05:00:47.407Z,98967.56
2023-04-18T05:03:16.278Z,98962.38
2023-04-18T05:05:44.921Z,98972.41
2023-04-18T05:08:12.836Z,98969.84
2023-04-18T05:10:41.567Z,98977.28
2023-04-18T05:13:09.466Z,98965.44
2023-04-18T05:15:37.540Z,98965.91
2023-04-18T05:18:06.187Z,98976.44
2023-04-18T05:20:34.105Z,98985.44
2023-04-18T05:23:02.093Z,98984.34
2023-04-18T05:25:31.548Z,98988.06
2023-04-18T05:28:01.256Z,98985.13
2023-04-18T05:30:29.127Z,98995.19
2023-04-18T05:32:57.249Z,98990.47
2023-04-18T05:35:25.157Z,98983.69
2023-04-18T05:37:53.001Z,98986.88
2023-04-18T05:40:20.982Z,98984.00
2023-04-18T05:42:48.886Z,98986.88
2023-04-18T05:45:16.826Z,98986.25
2023-04-18T05:47:44.781Z,98984.31
2023-04-18T05:50:12.782Z,98981.09
2023-04-18T05:52:40.671Z,98990.91
2023-04-18T05:55:08.968Z,98987.56
2023-04-18T05:57:36.861Z,98989.63
2023-04-18T06:00:11.403Z,98979.94
2023-04-18T06:02:42.110Z,98986.88
2023-04-18T06:05:10.318Z,98999.63
2023-04-18T06:07:38.637Z,98984.44
2023-04-18T06:11:22.467Z,98987.88
2023-04-18T06:18:25.574Z,98987.16
2023-04-18T06:20:53.568Z,98989.25
2023-04-18T06:23:21.586Z,98989.25
2023-04-18T06:25:49.621Z,98987.66
2023-04-18T06:28:17.489Z,98975.19
2023-04-18T06:30:45.449Z,98996.00
2023-04-18T06:33:13.263Z,98995.69
2023-04-18T06:35:41.615Z,98999.84
2023-04-18T06:38:12.139Z,98985.78
2023-04-18T06:40:40.034Z,98995.81
2023-04-18T06:43:07.838Z,98992.56
2023-04-18T06:45:36.441Z,98988.00
2023-04-18T06:48:04.582Z,98993.19
2023-04-18T06:50:32.462Z,98991.44
2023-04-18T06:53:00.496Z,98993.66
2023-04-18T06:55:28.383Z,98994.44
2023-04-18T06:57:56.243Z,98994.97
2023-04-18T07:00:24.077Z,98996.31
2023-04-18T07:02:52.063Z,99003.97
2023-04-18T07:05:20.104Z,99000.91
2023-04-18T07:07:48.095Z,98997.06
2023-04-18T07:10:16.129Z,98998.53
2023-04-18T07:12:44.238Z,98993.50
2023-04-18T07:15:12.205Z,98995.59
2023-04-18T07:17:40.164Z,98997.72
2023-04-18T07:20:08.752Z,99001.91
2023-04-18T07:22:36.760Z,98996.25
2023-04-18T07:25:04.938Z,98999.47
2023-04-18T07:27:35.430Z,98996.25
2023-04-18T07:30:04.391Z,98997.72
2023-04-18T07:32:33.046Z,99003.84
2023-04-18T07:35:01.348Z,99000.28
2023-04-18T07:37:29.198Z,98999.63
2023-04-18T07:39:57.018Z,99002.03
2023-04-18T07:42:24.865Z,98999.63
2023-04-18T07:44:58.187Z,99007.03
2023-04-18T07:47:29.842Z,98999.94
2023-04-18T07:49:58.830Z,98994.28
2023-04-18T07:52:26.875Z,99002.47
2023-04-18T07:54:54.837Z,99010.53
2023-04-18T07:57:22.644Z,99008.06
2023-04-18T07:59:53.756Z,99007.44
2023-04-18T08:02:22.050Z,99019.53
2023-04-18T08:04:50.100Z,99011.44
2023-04-18T08:07:18.292Z,99008.03
2023-04-18T08:09:46.205Z,99007.72
2023-04-18T08:12:14.088Z,99004.78
2023-04-18T08:14:41.972Z,99015.00
2023-04-18T08:17:09.803Z,99009.34
2023-04-18T08:19:37.637Z,99011.44
2023-04-18T08:22:12.798Z,99030.88
2023-04-18T08:24:46.383Z,99023.44
2023-04-18T08:27:19.398Z,99017.19
2023-04-18T08:29:47.310Z,99025.56
2023-04-18T08:32:15.182Z,99024.44
2023-04-18T08:34:43.556Z,99021.69
2023-04-18T08:37:11.464Z,99024.91
2023-04-18T08:39:39.254Z,99030.03
2023-04-18T08:42:10.257Z,99026.81
2023-04-18T08:44:38.125Z,99032.78
2023-04-18T08:47:09.073Z,99035.16
2023-04-18T08:49:37.039Z,99023.34
2023-04-18T08:52:11.279Z,99031.97
2023-04-18T08:54:42.107Z,99026.63
2023-04-18T08:57:24.067Z,99030.97
2023-04-18T08:59:54.604Z,99034.34
2023-04-18T09:02:39.247Z,99029.78
2023-04-18T09:05:22.001Z,99038.50
2023-04-18T09:07:53.624Z,99030.06
2023-04-18T09:10:33.577Z,99041.19
2023-04-18T09:13:05.891Z,99038.19
2023-04-18T09:15:34.503Z,99045.28
2023-04-18T09:18:03.352Z,99028.31
2023-04-18T09:20:41.442Z,99047.44
2023-04-18T09:23:20.412Z,99036.38
2023-04-18T09:25:50.933Z,99038.41
2023-04-18T09:28:23.494Z,99045.69
2023-04-18T09:30:52.774Z,99041.41
2023-04-18T09:33:28.330Z,99048.09
2023-04-18T09:35:57.206Z,99038.72
2023-04-18T09:38:41.237Z,99040.88
2023-04-18T09:41:13.285Z,99047.19
2023-04-18T09:43:41.602Z,99043.94
2023-04-18T09:46:10.025Z,99041.53
2023-04-18T09:48:38.232Z,99045.94
2023-04-18T09:51:09.460Z,99046.56
2023-04-18T09:53:42.207Z,99046.06
2023-04-18T09:56:17.597Z,99040.97
2023-04-18T09:58:50.612Z,99048.84
2023-04-18T10:01:19.110Z,99046.09
2023-04-18T10:03:50.699Z,99040.88
2023-04-18T10:06:19.279Z,99049.00
2023-04-18T10:08:49.583Z,99048.91
2023-04-18T10:11:19.833Z,99042.06
2023-04-18T10:13:50.951Z,99048.38
2023-04-18T10:16:20.438Z,99045.75
2023-04-18T10:18:50.283Z,99041.72
2023-04-18T10:21:18.172Z,99044.28
2023-04-18T10:23:48.891Z,99043.34
2023-04-18T10:26:16.806Z,99051.75
2023-04-18T10:28:57.688Z,99047.88
2023-04-18T10:31:28.497Z,99041.00
2023-04-18T10:36:32.463Z,99043.84
2023-04-18T10:39:05.069Z,99047.03
2023-04-18T10:41:34.214Z,99039.06
2023-04-18T10:44:34.738Z,99036.22
2023-04-18T10:47:08.809Z,99045.56
2023-04-18T10:49:37.360Z,99032.72
2023-04-18T10:52:08.768Z,99034.00
2023-04-18T11:07:49.931Z,99029.34
2023-04-18T11:10:21.193Z,99040.03
2023-04-18T11:12:49.664Z,99024.72
2023-04-18T11:15:23.500Z,99030.22
2023-04-18T11:18:04.991Z,99031.91
2023-04-18T11:20:49.910Z,99023.56
2023-04-18T11:23:23.861Z,99027.59
2023-04-18T11:25:56.279Z,99028.31
2023-04-18T11:28:27.033Z,99030.25
2023-04-18T11:30:59.705Z,99028.34
2023-04-18T11:33:29.373Z,99028.59
2023-04-18T11:36:01.000Z,99030.72
2023-04-18T11:38:33.896Z,99023.19
2023-04-18T11:41:04.761Z,99034.81
2023-04-18T11:43:33.117Z,99037.22
2023-04-18T11:46:01.742Z,99038.50
2023-04-18T11:48:40.161Z,99023.81
2023-04-18T11:51:09.910Z,99035.75
2023-04-18T11:53:39.535Z,99036.69
2023-04-18T11:56:07.656Z,99033.59
2023-04-18T11:58:36.737Z,99027.81
2023-04-18T12:01:21.685Z,99025.06
2023-04-18T12:04:07.382Z,99034.13
2023-04-18T12:06:49.526Z,99034.28
2023-04-18T12:09:19.070Z,99030.56
2023-04-18T12:12:04.025Z,99034.69
2023-04-18T12:14:31.959Z,99038.44
2023-04-18T12:17:03.657Z,99037.03
2023-04-18T12:19:31.550Z,99034.00
2023-04-18T12:22:05.131Z,99041.81
2023-04-18T12:24:33.158Z,99047.66
2023-04-18T12:27:01.885Z,99037.91
2023-04-18T12:29:29.848Z,99042.28
2023-04-18T12:31:57.752Z,99043.16
2023-04-18T12:34:25.720Z,99039.19
2023-04-18T12:36:53.884Z,99033.75
2023-04-18T12:39:21.772Z,99048.50
2023-04-18T12:41:49.899Z,99046.09
2023-04-18T12:44:18.176Z,99044.63
2023-04-18T12:46:46.153Z,99049.19
2023-04-18T12:49:14.053Z,99049.50
2023-04-18T12:51:43.613Z,99052.63
2023-04-18T12:54:11.595Z,99045.75
2023-04-18T12:56:39.620Z,99049.31
2023-04-18T12:59:07.673Z,99047.56
2023-04-18T13:01:35.595Z,99053.09
2023-04-18T13:04:11.814Z,99049.88
2023-04-18T13:06:41.095Z,99051.63
2023-04-18T13:09:09.326Z,99049.38
2023-04-18T13:11:37.222Z,99056.81
2023-04-18T13:14:05.143Z,99052.63
2023-04-18T13:16:32.991Z,99052.28
2023-04-18T13:19:00.919Z,99040.44
2023-04-18T13:21:29.235Z,99048.84
2023-04-18T13:23:57.398Z,99040.59
2023-04-18T13:26:25.706Z,99036.84
2023-04-18T13:28:53.511Z,99043.94
2023-04-18T13:31:21.392Z,99036.16
2023-04-18T13:33:49.270Z,99041.00
2023-04-18T13:36:17.961Z,99035.41
2023-04-18T13:38:46.338Z,99032.34
2023-04-18T13:41:14.338Z,99040.16
2023-04-18T13:43:42.207Z,99032.81
2023-04-18T13:46:10.174Z,99036.03
2023-04-18T13:48:38.064Z,99037.97
2023-04-18T13:51:06.915Z,99034.41
2023-04-18T13:53:34.951Z,99038.31
2023-04-18T13:56:02.820Z,99048.41
2023-04-18T13:58:30.737Z,99041.72
2023-04-18T14:00:58.617Z,99043.59
2023-04-18T14:03:26.949Z,99042.66
2023-04-18T14:05:54.977Z,99045.41
2023-04-18T14:08:22.899Z,99044.66
2023-04-18T14:10:50.871Z,99048.72
2023-04-18T14:13:18.956Z,99050.34
2023-04-18T14:15:46.959Z,99050.28
2023-04-18T14:18:17.848Z,99044.69
2023-04-18T14:20:45.679Z,99051.41
2023-04-18T14:23:13.530Z,99050.94
2023-04-18T14:25:41.744Z,99053.38
2023-04-18T14:28:11.924Z,99049.25
2023-04-18T14:30:40.319Z,99051.19
2023-04-18T14:33:09.759Z,99051.19
2023-04-18T14:35:38.400Z,99050.84
2023-04-18T14:38:06.269Z,99064.63
2023-04-18T14:40:34.086Z,99052.00
2023-04-18T14:43:02.262Z,99055.34
2023-04-18T14:45:33.913Z,99053.41
2023-04-18T14:48:01.881Z,99052.94
2023-04-18T14:50:29.887Z,99047.44
2023-04-18T14:52:57.753Z,99051.66
2023-04-18T14:55:25.725Z,99051.00
2023-04-18T14:57:54.757Z,99052.94
2023-04-18T15:00:22.835Z,99047.31
2023-04-18T15:02:50.828Z,99052.47
2023-04-18T15:05:20.504Z,99050.84
2023-04-18T15:07:48.368Z,99053.41
2023-04-18T15:10:16.766Z,99048.72
2023-04-18T15:12:46.754Z,99053.97
2023-04-18T15:15:14.828Z,99051.28
2023-04-18T15:17:42.856Z,99058.72
2023-04-18T15:20:10.764Z,99057.72
2023-04-18T15:22:38.632Z,99052.91
2023-04-18T15:25:07.007Z,99055.16
2023-04-18T15:27:34.985Z,99052.41
2023-04-18T15:30:03.689Z,99063.22
2023-04-18T15:32:32.871Z,99058.88
2023-04-18T15:35:00.964Z,99059.41
2023-04-18T15:37:28.945Z,99065.16
2023-04-18T15:39:57.354Z,99056.78
2023-04-18T15:42:25.460Z,99055.50
2023-04-18T15:44:53.379Z,99053.09
2023-04-18T15:47:21.468Z,99059.72
2023-04-18T15:49:49.386Z,99064.38
2023-04-18T15:52:17.442Z,99071.38
2023-04-18T15:54:45.293Z,99070.34
2023-04-18T15:57:13.438Z,99073.91
2023-04-18T15:59:41.277Z,99070.22
2023-04-18T16:02:09.677Z,99076.19
2023-04-18T16:04:37.723Z,99086.25
2023-04-18T16:07:06.486Z,99079.16
2023-04-18T16:09:34.324Z,99080.16
2023-04-18T16:12:03.317Z,99078.06
2023-04-18T16:14:31.407Z,99068.06
2023-04-18T16:16:59.714Z,99084.13
2023-04-18T16:19:27.712Z,99079.41
2023-04-18T16:21:55.533Z,99082.16
2023-04-18T16:24:25.738Z,99076.44
2023-04-18T16:26:55.520Z,99083.66
2023-04-18T16:29:23.831Z,99090.75
2023-04-18T16:31:51.857Z,99077.19
2023-04-18T16:34:19.912Z,99077.66
2023-04-18T16:36:50.661Z,99082.91
2023-04-18T16:39:19.267Z,99099.56
2023-04-18T16:41:47.213Z,99085.47
2023-04-18T16:44:15.211Z,99090.66
2023-04-18T16:46:43.273Z,99077.69
2023-04-18T16:54:10.491Z,99096.00
2023-04-18T16:56:39.216Z,99097.16
2023-04-18T16:59:09.250Z,99094.94
2023-04-18T17:01:37.804Z,99094.94
2023-04-18T17:04:06.267Z,99104.97
2023-04-18T17:06:34.372Z,99096.53
2023-04-18T17:09:02.270Z,99098.63
2023-04-18T17:11:32.169Z,99099.47
2023-04-18T17:14:00.704Z,99105.13
2023-04-18T17:16:28.617Z,99092.50
2023-04-18T17:18:56.668Z,99107.41
2023-04-18T17:21:24.537Z,99099.34
2023-04-18T17:23:53.388Z,99105.00
2023-04-18T17:26:24.187Z,99109.06
2023-04-18T17:28:52.965Z,99104.50
2023-04-18T17:31:20.854Z,99114.09
2023-04-18T17:33:50.747Z,99112.50
2023-04-18T17:36:18.696Z,99115.25
2023-04-18T17:38:49.260Z,99114.09
2023-04-18T17:41:18.468Z,99125.44
2023-04-18T17:43:47.329Z,99120.75
2023-04-18T17:46:15.493Z,99117.81
2023-04-18T17:48:43.398Z,99111.38
2023-04-18T17:51:11.291Z,99122.22
2023-04-18T17:53:39.584Z,99124.97
2023-04-18T17:56:07.430Z,99123.69
2023-04-18T17:58:35.622Z,99119.81
2023-04-18T18:01:03.653Z,99130.34
2023-04-18T18:03:33.043Z,99130.22
2023-04-18T18:06:02.169Z,99131.16
2023-04-18T18:08:30.722Z,99125.19
2023-04-18T18:10:59.328Z,99136.50
2023-04-18T18:13:27.263Z,99135.50
2023-04-18T18:15:57.544Z,99142.28
2023-04-18T18:18:32.137Z,99148.78
2023-04-18T18:21:00.051Z,99143.50
2023-04-18T18:23:27.982Z,99149.16
2023-04-18T18:25:55.833Z,99156.47
2023-04-18T18:28:23.813Z,99167.63
2023-04-18T18:30:51.954Z,99170.06
2023-04-18T18:33:19.952Z,99172.16
2023-04-18T18:35:47.828Z,99168.66
2023-04-18T18:38:15.757Z,99168.66
2023-04-18T18:40:43.718Z,99178.69
2023-04-18T18:43:11.634Z,99164.59
2023-04-18T18:45:39.515Z,99162.84
2023-04-18T18:48:07.646Z,99171.25
2023-04-18T18:50:35.770Z,99171.59
2023-04-18T18:53:03.634Z,99159.47
2023-04-18T18:55:31.671Z,99170.28
2023-04-18T18:57:59.653Z,99173.34
2023-04-18T19:00:27.691Z,99178.72
2023-04-18T19:02:55.721Z,99175.47
2023-04-18T19:05:23.746Z,99176.28
2023-04-18T19:07:51.698Z,99172.88
2023-04-18T19:10:19.881Z,99177.91
2023-04-18T19:12:47.926Z,99180.81
2023-04-18T19:15:16.905Z,99182.09
2023-04-18T19:17:44.776Z,99180.66
2023-04-18T19:20:13.320Z,99179.34
2023-04-18T19:22:41.162Z,99178.22
2023-04-18T19:25:09.589Z,99178.53
2023-04-18T19:27:37.543Z,99182.59
2023-04-18T19:30:06.157Z,99179.03
2023-04-18T19:32:34.055Z,99176.44
2023-04-18T19:35:02.040Z,99177.25
2023-04-18T19:37:30.037Z,99180.00
2023-04-18T19:39:58.081Z,99176.59
2023-04-18T19:42:27.228Z,99180.31
2023-04-18T19:44:56.588Z,99166.25
2023-04-18T19:47:24.569Z,99186.13
2023-04-18T19:49:52.491Z,99177.72
2023-04-18T19:52:20.410Z,99185.00
2023-04-18T19:54:48.316Z,99181.28
2023-04-18T19:57:16.298Z,99186.28
2023-04-18T19:59:44.302Z,99183.38
2023-04-18T20:02:12.199Z,99180.97
2023-04-18T20:04:41.723Z,99181.44
2023-04-18T20:07:09.752Z,99181.09
2023-04-18T20:09:38.005Z,99189.97
2023-04-18T20:12:05.929Z,99188.50
2023-04-18T20:14:33.824Z,99186.22
2023-04-18T20:17:01.883Z,99188.97
2023-04-18T20:19:29.937Z,99171.72
2023-04-18T20:21:57.902Z,99195.75
2023-04-18T20:24:27.947Z,99188.34
2023-04-18T20:26:57.719Z,99183.00
2023-04-18T20:29:26.987Z,99182.84
2023-04-18T20:31:54.921Z,99179.50
2023-04-18T20:34:23.241Z,99180.09
2023-04-18T20:36:52.542Z,99197.22
2023-04-18T20:39:20.559Z,99184.75
2023-04-18T20:41:51.617Z,99188.19
2023-04-18T20:44:20.937Z,99181.53
2023-04-18T20:46:48.917Z,99179.75
2023-04-18T20:49:16.989Z,99177.66
2023-04-18T20:51:45.199Z,99179.44
2023-04-18T20:54:13.343Z,99183.16
2023-04-18T20:56:41.527Z,99185.25
2023-04-18T20:59:09.455Z,99181.34
2023-04-18T21:01:37.402Z,99172.63
2023-04-18T21:04:05.462Z,99177.78
2023-04-18T21:06:33.457Z,99172.00
2023-04-18T21:09:01.497Z,99173.13
2023-04-18T21:11:29.653Z,99170.56
2023-04-18T21:13:57.575Z,99175.38
2023-04-18T21:16:25.900Z,99180.72
2023-04-18T21:18:55.213Z,99177.97
2023-04-18T21:21:23.085Z,99173.44
2023-04-18T21:23:51.073Z,99171.50
2023-04-18T21:26:18.971Z,99169.25
2023-04-18T21:28:53.690Z,99163.25
2023-04-18T21:31:21.846Z,99161.91
2023-04-18T21:33:57.258Z,99166.50
2023-04-18T21:36:27.077Z,99174.25
2023-04-18T21:38:56.311Z,99169.72
2023-04-18T21:41:25.493Z,99168.75
2023-04-18T21:43:53.671Z,99169.75
2023-04-18T21:46:21.699Z,99174.09
2023-04-18T21:48:49.705Z,99170.38
2023-04-18T21:51:17.862Z,99172.97
2023-04-18T21:53:45.848Z,99169.88
2023-04-18T21:56:14.239Z,99176.03
2023-04-18T21:58:42.320Z,99178.59
2023-04-18T22:01:10.302Z,99170.69
2023-04-18T22:03:38.347Z,99172.16
2023-04-18T22:06:06.477Z,99165.53
2023-04-18T22:08:34.300Z,99168.44
2023-04-18T22:11:02.155Z,99169.09
2023-04-18T22:13:32.779Z,99168.09
2023-04-18T22:16:03.015Z,99166.63
2023-04-18T22:18:34.417Z,99170.19
2023-04-18T22:21:03.468Z,99162.78
2023-04-18T22:23:31.428Z,99162.13
2023-04-18T22:25:59.387Z,99163.25
2023-04-18T22:28:30.078Z,99160.69
2023-04-18T22:30:58.234Z,99161.78
2023-04-18T22:33:26.114Z,99163.69
2023-04-18T22:35:54.321Z,99159.00
2023-04-18T22:38:22.250Z,99164.53
2023-04-18T22:40:50.354Z,99160.31
2023-04-18T22:43:22.729Z,99156.44
2023-04-18T22:45:51.589Z,99156.28
2023-04-18T22:48:19.558Z,99146.88
2023-04-18T22:50:47.585Z,99152.72
2023-04-18T22:53:16.085Z,99145.44
2023-04-18T22:55:45.010Z,99161.13
2023-04-18T22:58:13.500Z,99155.44
2023-04-18T23:00:42.562Z,99160.00
2023-04-18T23:03:10.702Z,99152.41
2023-04-18T23:05:38.741Z,99154.34
2023-04-18T23:08:07.089Z,99151.13
2023-04-18T23:10:35.273Z,99142.56
2023-04-18T23:13:03.551Z,99149.97
2023-04-18T23:15:31.473Z,99143.19
2023-04-18T23:17:59.506Z,99140.78
2023-04-18T23:20:27.461Z,99140.28
2023-04-18T23:22:56.043Z,99141.44
2023-04-18T23:25:24.106Z,99140.91
2023-04-18T23:27:52.127Z,99137.56
2023-04-18T23:30:20.065Z,99132.88
2023-04-18T23:32:47.978Z,99133.34
2023-04-18T23:35:15.894Z,99129.47
2023-04-18T23:37:43.839Z,99136.56
2023-04-18T23:40:11.697Z,99127.03
2023-04-18T23:42:39.604Z,99124.75
2023-04-18T23:45:07.896Z,99121.88
2023-04-18T23:47:36.470Z,99119.91
2023-04-18T23:50:04.833Z,99119.28
2023-04-18T23:52:32.777Z,99120.41
2023-04-18T23:55:01.307Z,99117.16
2023-04-18T23:57:29.595Z,99108.31
2023-04-18T23:59:57.461Z,99108.00
